createdAt,value
2019-05-02T00:00:51.495Z,54.10
2019-05-02T00:01:54.257Z,54.30
2019-05-02T00:02:59.776Z,54.10
2019-05-02T00:04:01.319Z,54.20
2019-05-02T00:05:06.383Z,54.10
2019-05-02T00:06:09.377Z,54.10
2019-05-02T00:07:14.368Z,54.20
2019-05-02T00:08:16.824Z,54.10
2019-05-02T00:09:19.541Z,53.10
2019-05-02T00:10:24.855Z,54.20
2019-05-02T00:11:26.733Z,54.30
2019-05-02T00:12:29.491Z,54.10
2019-05-02T00:13:32.238Z,54.30
2019-05-02T00:14:35.109Z,54.20
2019-05-02T00:15:38.105Z,54.20
2019-05-02T00:16:45.113Z,54.20
2019-05-02T00:17:47.095Z,53.90
2019-05-02T00:18:49.824Z,54.20
2019-05-02T00:19:53.527Z,54.20
2019-05-02T00:20:57.060Z,54.30
2019-05-02T00:22:00.584Z,54.20
2019-05-02T00:23:03.343Z,54.20
2019-05-02T00:24:06.184Z,54.30
2019-05-02T00:25:11.099Z,54.20
2019-05-02T00:26:13.331Z,54.10
2019-05-02T00:27:16.058Z,54.20
2019-05-02T00:28:18.820Z,54.20
2019-05-02T00:29:23.740Z,54.20
2019-05-02T00:30:29.965Z,54.20
2019-05-02T00:31:30.597Z,54.50
2019-05-02T00:32:33.348Z,54.20
2019-05-02T00:33:36.068Z,54.10
2019-05-02T00:34:38.789Z,54.30
2019-05-02T00:35:46.245Z,54.20
2019-05-02T00:36:45.867Z,54.20
2019-05-02T00:37:48.628Z,54.10
2019-05-02T00:38:51.351Z,54.20
2019-05-02T00:39:54.081Z,54.20
2019-05-02T00:40:57.399Z,54.20
2019-05-02T00:42:12.039Z,54.20
2019-05-02T00:43:05.512Z,54.20
2019-05-02T00:44:10.999Z,54.10
2019-05-02T00:45:14.066Z,54.30
2019-05-02T00:46:17.008Z,54.40
2019-05-02T00:47:19.737Z,54.20
2019-05-02T00:48:24.418Z,54.20
2019-05-02T00:49:30.751Z,54.10
2019-05-02T00:50:31.958Z,55.80
2019-05-02T00:51:34.676Z,54.40
2019-05-02T00:52:37.819Z,54.20
2019-05-02T00:53:44.404Z,54.40
2019-05-02T00:54:45.088Z,54.40
2019-05-02T00:55:47.799Z,54.40
2019-05-02T00:56:50.522Z,54.20
2019-05-02T00:57:55.620Z,54.40
2019-05-02T00:59:02.402Z,54.20
2019-05-02T01:00:04.585Z,54.30
2019-05-02T01:01:07.312Z,54.30
2019-05-02T01:02:10.027Z,54.20
2019-05-02T01:03:16.227Z,54.40
2019-05-02T01:04:17.136Z,54.20
2019-05-02T01:05:19.853Z,54.20
2019-05-02T01:06:22.580Z,54.40
2019-05-02T01:07:26.861Z,54.30
2019-05-02T01:08:30.938Z,54.40
2019-05-02T01:09:35.056Z,54.30
2019-05-02T01:10:37.779Z,54.40
2019-05-02T01:11:40.808Z,54.20
2019-05-02T01:12:44.393Z,54.40
2019-05-02T01:13:50.387Z,54.30
2019-05-02T01:14:52.249Z,54.30
2019-05-02T01:15:54.972Z,54.30
2019-05-02T01:16:57.815Z,54.40
2019-05-02T01:18:01.069Z,54.30
2019-05-02T01:19:04.916Z,54.30
2019-05-02T01:20:07.657Z,54.30
2019-05-02T01:21:11.348Z,54.20
2019-05-02T01:22:15.889Z,54.40
2019-05-02T01:23:18.408Z,54.40
2019-05-02T01:24:21.164Z,54.30
2019-05-02T01:25:23.895Z,54.40
2019-05-02T01:26:29.236Z,54.40
2019-05-02T01:27:30.949Z,54.40
2019-05-02T01:28:33.699Z,54.40
2019-05-02T01:29:36.426Z,54.30
2019-05-02T01:30:42.289Z,54.40
2019-05-02T01:31:43.492Z,54.30
2019-05-02T01:32:46.212Z,54.40
2019-05-02T01:33:49.144Z,54.30
2019-05-02T01:34:54.492Z,54.40
2019-05-02T01:35:57.016Z,54.30
2019-05-02T01:36:59.746Z,54.40
2019-05-02T01:38:02.468Z,54.40
2019-05-02T01:39:07.499Z,54.30
2019-05-02T01:40:13.099Z,54.30
2019-05-02T01:41:14.403Z,54.40
2019-05-02T01:42:17.459Z,54.30
2019-05-02T01:43:25.585Z,54.40
2019-05-02T01:44:31.194Z,54.30
2019-05-02T01:45:32.796Z,54.30
2019-05-02T01:46:35.516Z,54.40
2019-05-02T01:47:38.360Z,54.50
2019-05-02T01:48:45.837Z,54.40
2019-05-02T01:49:46.395Z,54.30
2019-05-02T01:50:49.112Z,54.40
2019-05-02T01:51:51.845Z,54.40
2019-05-02T01:52:58.534Z,54.50
2019-05-02T01:53:59.524Z,54.40
2019-05-02T01:55:02.710Z,54.40
2019-05-02T01:56:05.423Z,54.40
2019-05-02T01:57:08.711Z,54.40
2019-05-02T01:58:14.957Z,55.30
2019-05-02T01:59:17.021Z,54.40
2019-05-02T02:00:20.410Z,54.50
2019-05-02T02:01:23.375Z,54.10
2019-05-02T02:02:28.040Z,54.60
2019-05-02T02:03:30.591Z,54.40
2019-05-02T02:04:33.350Z,54.50
2019-05-02T02:05:37.038Z,54.40
2019-05-02T02:06:43.402Z,54.60
2019-05-02T02:07:44.396Z,54.50
2019-05-02T02:08:47.239Z,54.50
2019-05-02T02:09:49.996Z,54.50
2019-05-02T02:10:56.479Z,54.40
2019-05-02T02:11:57.196Z,54.50
2019-05-02T02:13:04.780Z,54.50
2019-05-02T02:14:07.241Z,54.50
2019-05-02T02:15:08.911Z,54.40
2019-05-02T02:16:12.650Z,54.50
2019-05-02T02:17:17.191Z,54.50
2019-05-02T02:18:22.089Z,54.50
2019-05-02T02:19:24.451Z,54.40
2019-05-02T02:20:27.171Z,54.50
2019-05-02T02:21:30.908Z,54.50
2019-05-02T02:22:39.010Z,54.50
2019-05-02T02:23:38.299Z,54.60
2019-05-02T02:24:41.040Z,54.50
2019-05-02T02:25:43.763Z,54.50
2019-05-02T02:26:48.137Z,54.50
2019-05-02T02:27:54.990Z,54.50
2019-05-02T02:28:55.291Z,54.40
2019-05-02T02:29:58.445Z,54.60
2019-05-02T02:31:05.176Z,54.40
2019-05-02T02:32:05.495Z,54.50
2019-05-02T02:33:09.707Z,54.50
2019-05-02T02:34:12.558Z,54.50
2019-05-02T02:35:15.318Z,54.40
2019-05-02T02:36:29.541Z,54.50
2019-05-02T02:37:22.393Z,54.70
2019-05-02T02:38:26.866Z,54.50
2019-05-02T02:39:29.768Z,54.60
2019-05-02T02:40:35.311Z,54.50
2019-05-02T02:41:37.343Z,54.50
2019-05-02T02:42:40.066Z,54.50
2019-05-02T02:43:43.356Z,54.40
2019-05-02T02:44:46.461Z,54.40
2019-05-02T02:45:55.082Z,54.50
2019-05-02T02:46:53.556Z,54.50
2019-05-02T02:47:59.825Z,54.50
2019-05-02T02:49:00.616Z,54.50
2019-05-02T02:50:05.348Z,54.60
2019-05-02T02:51:08.240Z,54.40
2019-05-02T02:52:10.963Z,54.50
2019-05-02T02:53:18.180Z,54.40
2019-05-02T02:54:18.028Z,54.50
2019-05-02T02:55:22.274Z,54.40
2019-05-02T02:56:25.136Z,54.50
2019-05-02T02:57:28.513Z,54.60
2019-05-02T02:58:31.405Z,54.50
2019-05-02T02:59:34.110Z,54.60
2019-05-02T03:00:41.531Z,54.40
2019-05-02T03:01:41.217Z,54.60
2019-05-02T03:02:48.509Z,54.50
2019-05-02T03:03:48.278Z,54.60
2019-05-02T03:04:51.010Z,54.50
2019-05-02T03:05:58.665Z,54.60
2019-05-02T03:07:00.115Z,54.60
2019-05-02T03:08:05.459Z,54.50
2019-05-02T03:09:07.510Z,54.50
2019-05-02T03:10:10.300Z,54.50
2019-05-02T03:11:22.347Z,54.60
2019-05-02T03:12:17.403Z,54.60
2019-05-02T03:13:21.770Z,54.60
2019-05-02T03:14:24.465Z,54.50
2019-05-02T03:15:28.405Z,54.60
2019-05-02T03:16:31.564Z,54.60
2019-05-02T03:17:34.289Z,54.60
2019-05-02T03:18:40.474Z,54.70
2019-05-02T03:19:41.364Z,54.50
2019-05-02T03:20:44.121Z,54.60
2019-05-02T03:21:46.841Z,54.50
2019-05-02T03:22:49.692Z,54.60
2019-05-02T03:24:01.278Z,54.60
2019-05-02T03:24:56.753Z,54.60
2019-05-02T03:25:59.528Z,54.60
2019-05-02T03:27:02.244Z,54.60
2019-05-02T03:28:04.970Z,54.60
2019-05-02T03:29:08.349Z,54.70
2019-05-02T03:30:29.254Z,54.60
2019-05-02T03:31:24.810Z,54.60
2019-05-02T03:32:31.946Z,54.60
2019-05-02T03:33:24.563Z,54.60
2019-05-02T03:34:44.903Z,54.60
2019-05-02T03:35:43.329Z,54.70
2019-05-02T03:36:37.313Z,54.50
2019-05-02T03:37:44.993Z,54.60
2019-05-02T03:38:44.776Z,54.60
2019-05-02T03:39:57.139Z,54.50
2019-05-02T03:40:52.570Z,54.50
2019-05-02T03:42:02.951Z,54.50
2019-05-02T03:43:00.005Z,54.60
2019-05-02T03:44:10.983Z,54.50
2019-05-02T03:45:07.075Z,54.70
2019-05-02T03:46:13.454Z,54.60
2019-05-02T03:47:14.176Z,54.60
2019-05-02T03:48:18.173Z,54.40
2019-05-02T03:49:21.993Z,54.70
2019-05-02T03:50:32.413Z,54.60
2019-05-02T03:51:29.081Z,54.60
2019-05-02T03:52:36.546Z,54.60
2019-05-02T03:53:36.145Z,54.60
2019-05-02T03:54:48.681Z,54.60
2019-05-02T03:55:43.216Z,54.60
2019-05-02T03:56:51.094Z,54.60
2019-05-02T03:57:50.345Z,54.60
2019-05-02T03:58:56.336Z,54.40
2019-05-02T03:59:57.397Z,54.50
2019-05-02T04:01:01.760Z,54.70
2019-05-02T04:02:04.529Z,54.50
2019-05-02T04:03:07.229Z,54.50
2019-05-02T04:04:14.198Z,54.70
2019-05-02T04:05:14.327Z,54.80
2019-05-02T04:06:21.031Z,54.60
2019-05-02T04:07:22.152Z,54.60
2019-05-02T04:08:24.865Z,54.60
2019-05-02T04:09:32.020Z,54.60
2019-05-02T04:10:45.299Z,54.60
2019-05-02T04:11:48.070Z,54.60
2019-05-02T04:12:53.224Z,54.70
2019-05-02T04:13:55.299Z,54.70
2019-05-02T04:14:58.338Z,54.70
2019-05-02T04:16:01.060Z,54.50
2019-05-02T04:17:03.815Z,54.60
2019-05-02T04:18:08.623Z,54.80
2019-05-02T04:19:10.894Z,54.70
2019-05-02T04:20:13.936Z,54.50
2019-05-02T04:21:24.127Z,54.60
2019-05-02T04:22:21.521Z,54.50
2019-05-02T04:23:27.841Z,54.80
2019-05-02T04:24:28.598Z,54.60
2019-05-02T04:25:33.868Z,54.60
2019-05-02T04:26:35.696Z,54.70
2019-05-02T04:27:38.434Z,54.50
2019-05-02T04:28:45.414Z,54.50
2019-05-02T04:29:45.500Z,54.70
2019-05-02T04:30:51.090Z,54.40
2019-05-02T04:31:52.601Z,54.70
2019-05-02T04:32:55.714Z,54.60
2019-05-02T04:33:58.850Z,54.70
2019-05-02T04:35:01.578Z,54.70
2019-05-02T04:36:14.126Z,54.60
2019-05-02T04:37:09.000Z,54.50
2019-05-02T04:38:20.224Z,54.60
2019-05-02T04:39:21.212Z,54.70
2019-05-02T04:40:21.385Z,56.00
2019-05-02T04:41:28.686Z,54.60
2019-05-02T04:42:29.437Z,55.10
2019-05-02T04:43:32.316Z,54.60
2019-05-02T04:44:43.691Z,54.70
2019-05-02T04:45:52.824Z,54.50
2019-05-02T04:46:44.044Z,54.50
2019-05-02T04:47:54.913Z,54.50
2019-05-02T04:48:52.816Z,54.50
2019-05-02T04:49:55.500Z,54.50
2019-05-02T04:51:08.128Z,55.90
2019-05-02T04:52:10.494Z,54.60
2019-05-02T04:53:08.621Z,54.50
2019-05-02T04:54:21.942Z,54.50
2019-05-02T04:55:26.154Z,54.60
2019-05-02T04:56:20.167Z,54.50
2019-05-02T04:57:29.262Z,54.50
2019-05-02T04:58:33.430Z,54.60
2019-05-02T04:59:33.338Z,54.60
2019-05-02T05:00:38.954Z,54.80
2019-05-02T05:01:49.153Z,54.60
2019-05-02T05:02:45.082Z,54.40
2019-05-02T05:03:49.160Z,54.70
2019-05-02T05:04:52.143Z,54.50
2019-05-02T05:05:59.468Z,54.50
2019-05-02T05:07:01.047Z,54.50
2019-05-02T05:08:03.602Z,54.70
2019-05-02T05:09:12.661Z,54.50
2019-05-02T05:10:10.656Z,54.40
2019-05-02T05:11:13.936Z,54.50
2019-05-02T05:12:19.472Z,54.60
2019-05-02T05:13:23.283Z,54.50
2019-05-02T05:14:32.855Z,54.50
2019-05-02T05:15:38.348Z,54.50
2019-05-02T05:16:37.321Z,54.40
2019-05-02T05:17:39.712Z,53.60
2019-05-02T05:18:43.893Z,49.40
2019-05-02T05:19:48.759Z,47.80
2019-05-02T05:20:52.995Z,47.20
2019-05-02T05:21:58.761Z,46.90
2019-05-02T05:23:00.000Z,46.80
2019-05-02T05:24:02.728Z,46.70
2019-05-02T05:25:07.444Z,46.80
2019-05-02T05:26:11.379Z,47.00
2019-05-02T05:27:21.201Z,47.20
2019-05-02T05:28:20.004Z,47.40
2019-05-02T05:29:23.406Z,47.90
2019-05-02T05:30:27.766Z,48.20
2019-05-02T05:31:30.608Z,48.10
2019-05-02T05:32:33.328Z,48.00
2019-05-02T05:33:37.750Z,47.90
2019-05-02T05:34:40.431Z,48.50
2019-05-02T05:35:47.749Z,48.60
2019-05-02T05:36:48.161Z,48.90
2019-05-02T05:37:53.042Z,49.10
2019-05-02T05:38:55.704Z,49.40
2019-05-02T05:39:58.436Z,49.70
2019-05-02T05:41:03.068Z,50.00
2019-05-02T05:42:05.517Z,51.60
2019-05-02T05:43:14.452Z,51.80
2019-05-02T05:44:12.623Z,50.50
2019-05-02T05:45:17.383Z,50.60
2019-05-02T05:46:20.260Z,50.60
2019-05-02T05:47:22.985Z,50.70
2019-05-02T05:48:27.380Z,50.60
2019-05-02T05:49:30.272Z,50.80
2019-05-02T05:50:39.836Z,50.80
2019-05-02T05:51:37.544Z,50.80
2019-05-02T05:52:42.420Z,50.60
2019-05-02T05:53:44.787Z,50.70
2019-05-02T05:54:47.520Z,50.80
2019-05-02T05:55:53.527Z,51.00
2019-05-02T05:56:54.596Z,50.80
2019-05-02T05:58:01.800Z,50.80
2019-05-02T05:59:02.123Z,51.00
2019-05-02T06:00:11.908Z,50.90
2019-05-02T06:01:10.431Z,50.90
2019-05-02T06:02:14.774Z,51.00
2019-05-02T06:03:17.886Z,51.00
2019-05-02T06:04:23.665Z,51.00
2019-05-02T06:05:27.179Z,51.20
2019-05-02T06:06:29.675Z,51.90
2019-05-02T06:07:33.590Z,51.80
2019-05-02T06:08:36.783Z,51.70
2019-05-02T06:09:39.503Z,51.60
2019-05-02T06:10:43.985Z,51.90
2019-05-02T06:11:50.667Z,51.90
2019-05-02T06:12:50.935Z,51.80
2019-05-02T06:13:54.025Z,51.80
2019-05-02T06:15:01.671Z,51.90
2019-05-02T06:16:02.989Z,52.30
2019-05-02T06:17:05.759Z,52.90
2019-05-02T06:18:08.491Z,51.80
2019-05-02T06:19:13.030Z,51.10
2019-05-02T06:20:15.611Z,50.10
2019-05-02T06:21:18.466Z,50.20
2019-05-02T06:22:24.334Z,50.10
2019-05-02T06:23:25.936Z,49.30
2019-05-02T06:24:28.674Z,49.70
2019-05-02T06:25:34.140Z,49.60
2019-05-02T06:26:35.732Z,49.90
2019-05-02T06:27:38.455Z,49.60
2019-05-02T06:28:41.956Z,49.20
2019-05-02T06:29:45.948Z,48.80
2019-05-02T06:30:48.664Z,48.50
2019-05-02T06:31:52.056Z,48.20
2019-05-02T06:32:56.569Z,48.20
2019-05-02T06:34:02.106Z,48.20
2019-05-02T06:35:05.720Z,48.10
2019-05-02T06:36:08.447Z,47.90
2019-05-02T06:37:13.409Z,48.40
2019-05-02T06:38:15.659Z,48.20
2019-05-02T06:39:18.402Z,48.70
2019-05-02T06:40:21.143Z,48.70
2019-05-02T06:41:23.996Z,48.50
2019-05-02T06:42:27.674Z,48.30
2019-05-02T06:43:31.107Z,48.20
2019-05-02T06:44:33.900Z,48.20
2019-05-02T06:45:37.559Z,48.40
2019-05-02T06:46:40.980Z,48.30
2019-05-02T06:47:43.704Z,48.10
2019-05-02T06:48:48.249Z,48.20
2019-05-02T06:49:51.103Z,48.40
2019-05-02T06:50:53.825Z,48.50
2019-05-02T06:51:57.676Z,48.40
2019-05-02T06:53:04.418Z,48.40
2019-05-02T06:54:04.967Z,48.30
2019-05-02T06:55:08.327Z,48.50
2019-05-02T06:56:12.666Z,48.60
2019-05-02T06:57:19.024Z,48.60
2019-05-02T06:58:19.820Z,48.40
2019-05-02T06:59:22.908Z,48.40
2019-05-02T07:00:35.404Z,48.30
2019-05-02T07:01:30.260Z,48.40
2019-05-02T07:02:33.656Z,49.90
2019-05-02T07:03:41.399Z,48.70
2019-05-02T07:04:41.728Z,48.20
2019-05-02T07:05:44.571Z,48.20
2019-05-02T07:06:58.236Z,48.50
2019-05-02T07:07:51.776Z,48.10
2019-05-02T07:08:54.647Z,48.70
2019-05-02T07:09:57.671Z,48.80
2019-05-02T07:11:03.126Z,48.40
2019-05-02T07:12:09.843Z,48.30
2019-05-02T07:13:11.080Z,48.70
2019-05-02T07:14:18.573Z,48.30
2019-05-02T07:15:18.833Z,48.40
2019-05-02T07:16:36.851Z,48.50
2019-05-02T07:17:32.257Z,48.50
2019-05-02T07:18:31.294Z,48.30
2019-05-02T07:19:34.087Z,48.10
2019-05-02T07:20:40.468Z,47.90
2019-05-02T07:21:41.223Z,47.40
2019-05-02T07:22:45.679Z,47.20
2019-05-02T07:23:53.177Z,47.40
2019-05-02T07:24:53.097Z,47.20
2019-05-02T07:25:55.824Z,46.90
2019-05-02T07:26:58.556Z,47.00
2019-05-02T07:28:04.555Z,47.00
2019-05-02T07:29:05.753Z,47.00
2019-05-02T07:30:08.812Z,47.30
2019-05-02T07:31:13.744Z,47.20
2019-05-02T07:32:19.237Z,47.00
2019-05-02T07:33:20.228Z,46.80
2019-05-02T07:34:22.959Z,46.70
2019-05-02T07:35:25.933Z,48.10
2019-05-02T07:36:31.266Z,46.80
2019-05-02T07:37:33.044Z,46.80
2019-05-02T07:38:35.900Z,46.80
2019-05-02T07:39:41.047Z,46.90
2019-05-02T07:40:43.032Z,46.80
2019-05-02T07:41:46.132Z,46.40
2019-05-02T07:42:48.860Z,46.20
2019-05-02T07:43:52.151Z,46.40
2019-05-02T07:44:55.971Z,46.60
2019-05-02T07:45:58.695Z,46.50
2019-05-02T07:47:02.661Z,46.30
2019-05-02T07:48:05.771Z,46.40
2019-05-02T07:49:08.843Z,46.40
2019-05-02T07:50:11.931Z,46.30
2019-05-02T07:51:17.303Z,46.50
2019-05-02T07:52:19.316Z,46.60
2019-05-02T07:53:22.265Z,46.80
2019-05-02T07:54:26.764Z,46.70
2019-05-02T07:55:30.711Z,46.50
2019-05-02T07:56:33.755Z,46.50
2019-05-02T07:57:36.533Z,46.60
2019-05-02T07:58:46.801Z,46.50
2019-05-02T07:59:43.938Z,46.40
2019-05-02T08:00:46.704Z,46.10
2019-05-02T08:01:49.829Z,45.50
2019-05-02T08:02:57.961Z,46.00
2019-05-02T08:04:02.781Z,46.20
2019-05-02T08:05:02.555Z,46.40
2019-05-02T08:06:05.328Z,46.50
2019-05-02T08:07:08.061Z,46.50
2019-05-02T08:08:10.803Z,46.80
2019-05-02T08:09:14.545Z,46.90
2019-05-02T08:10:22.155Z,46.50
2019-05-02T08:11:21.663Z,47.80
2019-05-02T08:12:24.388Z,46.70
2019-05-02T08:13:27.116Z,46.60
2019-05-02T08:14:34.487Z,46.50
2019-05-02T08:15:34.224Z,46.20
2019-05-02T08:16:36.956Z,46.40
2019-05-02T08:17:39.675Z,46.40
2019-05-02T08:18:42.396Z,46.20
2019-05-02T08:19:45.123Z,45.90
2019-05-02T08:20:51.003Z,46.10
2019-05-02T08:21:52.651Z,46.10
2019-05-02T08:22:55.383Z,47.40
2019-05-02T08:24:02.306Z,46.20
2019-05-02T08:25:04.095Z,46.20
2019-05-02T08:26:06.864Z,46.00
2019-05-02T08:27:09.589Z,45.90
2019-05-02T08:28:15.839Z,46.20
2019-05-02T08:29:16.698Z,46.00
2019-05-02T08:30:19.444Z,46.10
2019-05-02T08:31:22.507Z,46.00
2019-05-02T08:32:25.236Z,45.90
2019-05-02T08:33:29.395Z,47.20
2019-05-02T08:34:32.389Z,47.30
2019-05-02T08:35:35.285Z,45.90
2019-05-02T08:36:39.012Z,45.80
2019-05-02T08:37:44.804Z,46.00
2019-05-02T08:38:48.888Z,45.90
2019-05-02T08:39:51.948Z,45.80
2019-05-02T08:40:56.588Z,45.70
2019-05-02T08:41:59.313Z,45.60
2019-05-02T08:43:03.558Z,45.50
2019-05-02T08:44:06.403Z,45.80
2019-05-02T08:45:09.127Z,45.50
2019-05-02T08:46:14.586Z,45.60
2019-05-02T08:47:19.141Z,45.80
2019-05-02T08:48:22.695Z,45.80
2019-05-02T08:49:25.078Z,45.80
2019-05-02T08:50:31.973Z,46.50
2019-05-02T08:51:32.189Z,46.60
2019-05-02T08:52:36.861Z,46.50
2019-05-02T08:53:39.269Z,46.70
2019-05-02T08:54:41.995Z,46.70
2019-05-02T08:55:45.265Z,46.90
2019-05-02T08:56:53.205Z,47.00
2019-05-02T08:57:53.627Z,47.10
2019-05-02T08:58:56.423Z,47.10
2019-05-02T09:00:00.272Z,47.00
2019-05-02T09:01:03.495Z,47.10
2019-05-02T09:02:06.781Z,47.30
2019-05-02T09:03:09.963Z,47.40
2019-05-02T09:04:12.939Z,47.20
2019-05-02T09:05:16.223Z,47.10
2019-05-02T09:06:22.364Z,47.20
2019-05-02T09:07:24.027Z,48.60
2019-05-02T09:08:27.101Z,47.20
2019-05-02T09:09:29.803Z,47.20
2019-05-02T09:10:37.191Z,47.20
2019-05-02T09:11:37.636Z,47.10
2019-05-02T09:12:43.693Z,47.20
2019-05-02T09:13:46.057Z,47.20
2019-05-02T09:14:49.420Z,47.30
2019-05-02T09:15:54.224Z,47.40
2019-05-02T09:17:00.313Z,47.30
2019-05-02T09:18:02.833Z,47.40
2019-05-02T09:19:05.395Z,47.70
2019-05-02T09:20:15.473Z,47.60
2019-05-02T09:21:12.776Z,47.80
2019-05-02T09:22:16.869Z,47.50
2019-05-02T09:23:19.696Z,47.60
2019-05-02T09:24:23.868Z,47.60
2019-05-02T09:25:26.891Z,47.50
2019-05-02T09:26:36.150Z,47.60
2019-05-02T09:27:34.002Z,47.50
2019-05-02T09:28:36.727Z,47.50
2019-05-02T09:29:44.416Z,47.50
2019-05-02T09:30:46.696Z,47.50
2019-05-02T09:31:48.175Z,47.50
2019-05-02T09:32:52.167Z,47.50
2019-05-02T09:33:55.692Z,47.60
2019-05-02T09:35:02.206Z,47.50
2019-05-02T09:36:02.888Z,47.60
2019-05-02T09:37:05.647Z,47.70
2019-05-02T09:38:08.437Z,47.50
2019-05-02T09:39:11.901Z,47.20
2019-05-02T09:40:16.694Z,46.80
2019-05-02T09:41:19.428Z,47.00
2019-05-02T09:42:22.401Z,46.40
2019-05-02T09:43:29.354Z,46.40
2019-05-02T09:44:29.463Z,46.40
2019-05-02T09:45:35.452Z,45.20
2019-05-02T09:46:36.604Z,46.40
2019-05-02T09:47:53.871Z,45.40
2019-05-02T09:48:44.030Z,46.40
2019-05-02T09:49:49.167Z,46.30
2019-05-02T09:50:52.806Z,46.30
2019-05-02T09:51:59.737Z,46.50
2019-05-02T09:53:01.933Z,46.50
2019-05-02T09:54:06.422Z,46.30
2019-05-02T09:55:11.982Z,46.50
2019-05-02T09:56:14.332Z,46.20
2019-05-02T09:57:17.086Z,46.10
2019-05-02T09:58:21.403Z,46.00
2019-05-02T09:59:29.746Z,46.20
2019-05-02T10:00:32.392Z,46.40
2019-05-02T10:01:34.017Z,46.20
2019-05-02T10:02:36.782Z,46.20
2019-05-02T10:03:39.509Z,46.20
2019-05-02T10:04:44.113Z,46.00
2019-05-02T10:05:47.169Z,46.20
2019-05-02T10:06:52.261Z,46.50
2019-05-02T10:07:57.415Z,46.70
2019-05-02T10:08:59.632Z,46.70
2019-05-02T10:10:06.612Z,46.70
2019-05-02T10:11:07.646Z,46.90
2019-05-02T10:12:12.294Z,46.80
2019-05-02T10:13:14.908Z,47.60
2019-05-02T10:14:17.630Z,47.20
2019-05-02T10:15:22.169Z,47.40
2019-05-02T10:16:27.338Z,46.50
2019-05-02T10:17:29.046Z,46.80
2019-05-02T10:18:32.904Z,46.10
2019-05-02T10:19:35.940Z,46.00
2019-05-02T10:20:38.652Z,45.50
2019-05-02T10:21:42.208Z,45.60
2019-05-02T10:22:45.120Z,45.10
2019-05-02T10:23:51.811Z,45.10
2019-05-02T10:24:52.288Z,45.00
2019-05-02T10:25:55.020Z,46.50
2019-05-02T10:27:04.184Z,44.70
2019-05-02T10:28:02.306Z,45.60
2019-05-02T10:29:05.396Z,45.40
2019-05-02T10:30:13.405Z,45.10
2019-05-02T10:31:12.796Z,46.20
2019-05-02T10:32:16.754Z,45.00
2019-05-02T10:33:19.704Z,44.80
2019-05-02T10:34:22.732Z,44.90
2019-05-02T10:35:28.079Z,45.10
2019-05-02T10:36:30.062Z,44.70
2019-05-02T10:37:38.309Z,44.60
2019-05-02T10:38:37.168Z,44.40
2019-05-02T10:39:39.890Z,44.20
2019-05-02T10:40:42.780Z,44.10
2019-05-02T10:41:45.461Z,44.40
2019-05-02T10:42:48.188Z,44.40
2019-05-02T10:43:53.998Z,44.40
2019-05-02T10:44:55.304Z,43.60
2019-05-02T10:45:58.039Z,43.80
2019-05-02T10:47:02.699Z,44.10
2019-05-02T10:48:05.108Z,43.90
2019-05-02T10:49:07.868Z,43.80
2019-05-02T10:50:11.694Z,44.20
2019-05-02T10:51:14.452Z,44.30
2019-05-02T10:52:21.699Z,44.00
2019-05-02T10:53:21.880Z,43.90
2019-05-02T10:54:28.013Z,43.70
2019-05-02T10:55:30.218Z,43.60
2019-05-02T10:56:33.115Z,43.20
2019-05-02T10:57:35.829Z,43.40
2019-05-02T10:58:38.587Z,44.70
2019-05-02T10:59:42.069Z,43.00
2019-05-02T11:00:45.470Z,42.90
2019-05-02T11:01:48.425Z,42.80
2019-05-02T11:02:52.471Z,42.80
2019-05-02T11:03:55.320Z,42.70
2019-05-02T11:04:58.055Z,42.40
2019-05-02T11:06:03.656Z,42.10
2019-05-02T11:07:05.316Z,42.00
2019-05-02T11:08:08.462Z,42.00
2019-05-02T11:09:12.072Z,41.80
2019-05-02T11:10:15.299Z,42.00
2019-05-02T11:11:18.030Z,42.00
2019-05-02T11:12:24.489Z,41.90
2019-05-02T11:13:25.566Z,42.20
2019-05-02T11:14:28.331Z,42.00
2019-05-02T11:15:32.607Z,42.20
2019-05-02T11:16:35.438Z,42.30
2019-05-02T11:17:38.488Z,42.30
2019-05-02T11:18:43.055Z,42.60
2019-05-02T11:19:45.650Z,42.40
2019-05-02T11:20:48.656Z,42.50
2019-05-02T11:21:56.461Z,42.70
2019-05-02T11:22:55.731Z,42.60
2019-05-02T11:23:58.541Z,44.00
2019-05-02T11:25:02.061Z,42.70
2019-05-02T11:26:04.883Z,42.70
2019-05-02T11:27:08.286Z,42.60
2019-05-02T11:28:12.444Z,42.60
2019-05-02T11:29:15.268Z,43.00
2019-05-02T11:30:22.451Z,42.90
2019-05-02T11:31:22.337Z,42.70
2019-05-02T11:32:25.056Z,42.70
2019-05-02T11:33:27.784Z,42.60
2019-05-02T11:34:32.495Z,42.50
2019-05-02T11:35:35.672Z,42.50
2019-05-02T11:36:38.399Z,42.70
2019-05-02T11:37:42.226Z,42.70
2019-05-02T11:38:48.367Z,42.80
2019-05-02T11:39:52.531Z,43.00
2019-05-02T11:40:53.836Z,43.00
2019-05-02T11:41:56.567Z,43.10
2019-05-02T11:43:02.795Z,42.80
2019-05-02T11:44:03.640Z,42.80
2019-05-02T11:45:06.974Z,42.70
2019-05-02T11:46:09.709Z,42.70
2019-05-02T11:47:12.713Z,42.50
2019-05-02T11:48:15.554Z,42.40
2019-05-02T11:49:18.356Z,42.40
2019-05-02T11:50:22.118Z,42.70
2019-05-02T11:51:24.954Z,42.80
2019-05-02T11:52:32.054Z,42.60
2019-05-02T11:53:32.661Z,42.60
2019-05-02T11:54:39.126Z,42.70
2019-05-02T11:55:41.446Z,42.90
2019-05-02T11:56:48.979Z,42.90
2019-05-02T11:57:48.948Z,43.10
2019-05-02T11:58:52.861Z,43.40
2019-05-02T11:59:59.429Z,43.40
2019-05-02T12:01:04.858Z,43.50
2019-05-02T12:02:04.643Z,43.40
2019-05-02T12:03:07.359Z,43.40
2019-05-02T12:04:14.960Z,43.00
2019-05-02T12:05:14.484Z,43.10
2019-05-02T12:06:19.786Z,42.70
2019-05-02T12:07:23.083Z,42.70
2019-05-02T12:08:26.248Z,42.90
2019-05-02T12:09:28.967Z,42.90
2019-05-02T12:10:34.862Z,42.90
2019-05-02T12:11:36.377Z,43.00
2019-05-02T12:12:39.108Z,43.40
2019-05-02T12:13:42.741Z,42.80
2019-05-02T12:14:45.651Z,41.90
2019-05-02T12:15:48.412Z,42.70
2019-05-02T12:16:52.764Z,42.80
2019-05-02T12:17:55.580Z,42.80
2019-05-02T12:19:09.508Z,42.90
2019-05-02T12:20:03.183Z,43.40
2019-05-02T12:21:05.895Z,43.40
2019-05-02T12:22:12.828Z,43.40
2019-05-02T12:23:13.177Z,43.70
2019-05-02T12:24:15.923Z,43.40
2019-05-02T12:25:18.763Z,43.10
2019-05-02T12:26:22.075Z,42.90
2019-05-02T12:27:25.029Z,42.60
2019-05-02T12:28:28.095Z,44.00
2019-05-02T12:29:30.852Z,42.80
2019-05-02T12:30:37.694Z,43.40
2019-05-02T12:31:38.396Z,44.30
2019-05-02T12:32:42.720Z,42.70
2019-05-02T12:33:45.548Z,42.40
2019-05-02T12:34:48.280Z,42.20
2019-05-02T12:35:52.545Z,42.20
2019-05-02T12:36:55.575Z,42.40
2019-05-02T12:37:58.308Z,42.30
2019-05-02T12:39:02.458Z,42.20
2019-05-02T12:40:05.631Z,42.20
2019-05-02T12:41:19.523Z,42.00
2019-05-02T12:42:13.191Z,43.40
2019-05-02T12:43:16.269Z,43.30
2019-05-02T12:44:19.000Z,43.40
2019-05-02T12:45:22.117Z,43.10
2019-05-02T12:46:24.888Z,43.00
2019-05-02T12:47:27.953Z,43.10
2019-05-02T12:48:32.676Z,43.30
2019-05-02T12:49:35.332Z,43.10
2019-05-02T12:50:38.139Z,43.10
2019-05-02T12:51:42.737Z,43.10
2019-05-02T12:52:45.320Z,43.40
2019-05-02T12:53:48.008Z,43.30
2019-05-02T12:54:52.580Z,43.40
2019-05-02T12:55:55.187Z,43.40
2019-05-02T12:56:57.919Z,43.40
2019-05-02T12:58:00.652Z,43.20
2019-05-02T12:59:03.410Z,43.40
2019-05-02T13:00:06.480Z,43.40
2019-05-02T13:01:09.277Z,43.70
2019-05-02T13:02:12.543Z,43.80
2019-05-02T13:03:15.400Z,45.10
2019-05-02T13:04:18.139Z,44.10
2019-05-02T13:05:22.205Z,43.90
2019-05-02T13:06:25.168Z,44.00
2019-05-02T13:07:27.892Z,44.10
2019-05-02T13:08:32.236Z,44.00
2019-05-02T13:09:36.080Z,44.00
2019-05-02T13:10:38.807Z,43.80
2019-05-02T13:11:44.615Z,43.90
2019-05-02T13:12:46.252Z,43.90
2019-05-02T13:13:49.080Z,43.90
2019-05-02T13:14:52.935Z,43.80
2019-05-02T13:15:55.890Z,43.70
2019-05-02T13:17:01.596Z,43.80
2019-05-02T13:18:03.613Z,43.80
2019-05-02T13:19:06.485Z,43.50
2019-05-02T13:20:09.385Z,43.40
2019-05-02T13:21:15.186Z,43.70
2019-05-02T13:22:16.498Z,45.10
2019-05-02T13:23:22.446Z,42.80
2019-05-02T13:24:29.121Z,42.50
2019-05-02T13:25:32.919Z,43.00
2019-05-02T13:26:33.839Z,43.10
2019-05-02T13:27:43.564Z,44.60
2019-05-02T13:28:42.389Z,43.60
2019-05-02T13:29:45.543Z,43.20
2019-05-02T13:30:51.672Z,43.50
2019-05-02T13:31:54.283Z,43.70
2019-05-02T13:32:57.947Z,43.40
2019-05-02T13:34:01.855Z,43.00
2019-05-02T13:35:06.520Z,44.50
2019-05-02T13:36:28.813Z,42.40
2019-05-02T13:37:31.880Z,44.10
2019-05-02T13:38:34.616Z,44.50